Main page
METAR-TAF:

METAR-TAF

Airports :

Lewistown Municipal Airport

Lewistown, Montana, United States

latitude: 47-02-57N, longitude: 109-27-59W, elevation: 4166 ft

Current weather observation

The report was made 27 minutes ago, at 19:54 UTC
Wind 10 mph from the West/Northwest with gusts up to 24 mph
Temperature 66°F
Humidity 32%
Pressure 30.22 in. Hg
Visibility: 10 miles
Clear sky

METAR: KLWT 241954Z AUTO 29009G21KT 10SM CLR 19/02 A3022 RMK AO2 SLP211 T01940022

Time: 14:21 (20:21 UTC)

Forecast

The report was made 2 hours and 50 minutes ago, at 17:31 UTC
Forecast valid from 24 at 18 UTC to 25 at 18 UTC
Wind 15 mph from the Northwest with gusts up to 29 mph
Visibility: 6 miles
Clear sky
From 25 at 0100 UTC
Wind 8 mph from the North/Northwest
Visibility: 6 miles
Clear sky
From 25 at 1700 UTC
Wind 0 mph from the North
Visibility: 6 miles
Few clouds at a height of 25000 ft

TAF: KLWT 241731Z 2418/2518 32013G25KT P6SM SKC FM250100 33007KT P6SM SKC FM251700 00000KT P6SM FEW250

Weather observations and forecasts of more than 4000 airports (METAR and TAF reports).

The available stations are represented by yellow and red dots on the map.

Hover mouse over dot to see the name of the station.

Then click to see weather observations and forecasts.

To change the map : click on the green buttons with a black cross to zoom in, on the green button with a dash to zoom out, or on the green arrows for adjacent maps.


METAR-TAF: